createdAt,value
2023-02-23T00:00:33.563Z,409.00
2023-02-23T00:01:33.409Z,407.00
2023-02-23T00:02:33.574Z,411.00
2023-02-23T00:03:33.415Z,411.00
2023-02-23T00:04:35.442Z,409.00
2023-02-23T00:05:33.381Z,408.00
2023-02-23T00:06:54.522Z,407.00
2023-02-23T00:07:33.328Z,406.00
2023-02-23T00:08:33.409Z,405.00
2023-02-23T00:09:33.300Z,406.00
2023-02-23T00:10:33.517Z,401.00
2023-02-23T00:11:33.270Z,402.00
2023-02-23T00:12:33.380Z,404.00
2023-02-23T00:13:33.250Z,402.00
2023-02-23T00:14:33.313Z,403.00
2023-02-23T00:15:33.221Z,403.00
2023-02-23T00:16:33.327Z,403.00
2023-02-23T00:17:33.190Z,405.00
2023-02-23T00:18:33.279Z,404.00
2023-02-23T00:19:33.183Z,403.00
2023-02-23T00:20:33.319Z,403.00
2023-02-23T00:21:33.151Z,403.00
2023-02-23T00:22:34.340Z,401.00
2023-02-23T00:23:33.108Z,404.00
2023-02-23T00:24:33.188Z,404.00
2023-02-23T00:25:33.088Z,401.00
2023-02-23T00:26:33.219Z,402.00
2023-02-23T00:27:33.057Z,405.00
2023-02-23T00:28:35.155Z,407.00
2023-02-23T00:29:33.038Z,407.00
2023-02-23T00:30:33.245Z,408.00
2023-02-23T00:31:33.220Z,406.00
2023-02-23T00:32:33.131Z,408.00
2023-02-23T00:33:32.992Z,405.00
2023-02-23T00:34:35.062Z,404.00
2023-02-23T00:35:32.960Z,408.00
2023-02-23T00:36:33.103Z,408.00
2023-02-23T00:37:32.932Z,404.00
2023-02-23T00:38:33.035Z,404.00
2023-02-23T00:39:32.909Z,407.00
2023-02-23T00:40:33.052Z,405.00
2023-02-23T00:41:32.876Z,405.00
2023-02-23T00:42:32.902Z,408.00
2023-02-23T00:43:32.852Z,406.00
2023-02-23T00:44:32.945Z,408.00
2023-02-23T00:45:32.814Z,409.00
2023-02-23T00:46:32.944Z,410.00
2023-02-23T00:47:32.794Z,412.00
2023-02-23T00:48:32.953Z,408.00
2023-02-23T00:49:32.772Z,408.00
2023-02-23T00:50:32.855Z,407.00
2023-02-23T00:51:32.752Z,408.00
2023-02-23T00:52:33.864Z,406.00
2023-02-23T00:53:32.724Z,406.00
2023-02-23T00:54:32.775Z,404.00
2023-02-23T00:55:32.706Z,400.00
2023-02-23T00:56:32.795Z,400.00
2023-02-23T00:57:32.665Z,398.00
2023-02-23T00:58:32.853Z,397.00
2023-02-23T00:59:32.688Z,398.00
2023-02-23T01:00:32.755Z,401.00
2023-02-23T01:01:32.660Z,402.00
2023-02-23T01:02:33.677Z,401.00
2023-02-23T01:03:32.582Z,399.00
2023-02-23T01:04:32.749Z,405.00
2023-02-23T01:05:32.544Z,405.00
2023-02-23T01:06:32.734Z,404.00
2023-02-23T01:07:32.532Z,400.00
2023-02-23T01:08:32.568Z,402.00
2023-02-23T01:09:32.507Z,402.00
2023-02-23T01:10:32.528Z,401.00
2023-02-23T01:11:32.469Z,401.00
2023-02-23T01:12:32.537Z,402.00
2023-02-23T01:13:32.445Z,401.00
2023-02-23T01:15:41.773Z,479.00
2023-02-23T01:16:41.643Z,405.00
2023-02-23T01:17:41.781Z,404.00
2023-02-23T01:18:41.610Z,400.00
2023-02-23T01:19:41.710Z,397.00
2023-02-23T01:20:42.460Z,397.00
2023-02-23T01:21:41.738Z,397.00
2023-02-23T01:22:41.559Z,395.00
2023-02-23T01:24:03.693Z,397.00
2023-02-23T01:24:41.531Z,399.00
2023-02-23T01:25:41.619Z,397.00
2023-02-23T01:26:41.503Z,396.00
2023-02-23T01:27:41.628Z,399.00
2023-02-23T01:28:41.500Z,404.00
2023-02-23T01:29:41.525Z,408.00
2023-02-23T01:30:41.534Z,410.00
2023-02-23T01:31:41.681Z,407.00
2023-02-23T01:32:41.419Z,406.00
2023-02-23T01:33:41.508Z,406.00
2023-02-23T01:34:41.397Z,407.00
2023-02-23T01:35:43.490Z,404.00
2023-02-23T01:36:41.368Z,404.00
2023-02-23T01:37:41.430Z,407.00
2023-02-23T01:38:41.346Z,406.00
2023-02-23T01:39:41.520Z,406.00
2023-02-23T01:40:41.329Z,405.00
2023-02-23T01:41:41.500Z,404.00
2023-02-23T01:42:41.307Z,404.00
2023-02-23T01:43:42.370Z,401.00
2023-02-23T01:44:41.275Z,402.00
2023-02-23T01:45:41.507Z,404.00
2023-02-23T01:46:41.230Z,407.00
2023-02-23T01:47:41.469Z,406.00
2023-02-23T01:48:41.341Z,403.00
2023-02-23T01:49:41.487Z,402.00
2023-02-23T01:50:41.297Z,403.00
2023-02-23T01:51:41.244Z,405.00
2023-02-23T01:52:41.158Z,406.00
2023-02-23T01:53:41.212Z,404.00
2023-02-23T01:54:41.138Z,407.00
2023-02-23T01:55:41.247Z,408.00
2023-02-23T01:56:41.098Z,407.00
2023-02-23T01:57:41.237Z,409.00
2023-02-23T01:58:41.098Z,406.00
2023-02-23T01:59:42.252Z,404.00
2023-02-23T02:00:41.047Z,401.00
2023-02-23T02:01:41.217Z,399.00
2023-02-23T02:02:41.019Z,404.00
2023-02-23T02:03:41.139Z,408.00
2023-02-23T02:04:41.021Z,406.00
2023-02-23T02:05:41.125Z,410.00
2023-02-23T02:06:40.980Z,409.00
2023-02-23T02:07:41.080Z,407.00
2023-02-23T02:08:40.945Z,409.00
2023-02-23T02:09:41.147Z,407.00
2023-02-23T02:10:40.964Z,408.00
2023-02-23T02:12:02.926Z,408.00
2023-02-23T02:12:40.913Z,408.00
2023-02-23T02:13:40.976Z,407.00
2023-02-23T02:14:40.861Z,405.00
2023-02-23T02:15:40.974Z,406.00
2023-02-23T02:16:40.834Z,407.00
2023-02-23T02:17:43.042Z,407.00
2023-02-23T02:18:40.856Z,406.00
2023-02-23T02:19:40.876Z,405.00
2023-02-23T02:20:40.826Z,403.00
2023-02-23T02:21:40.856Z,408.00
2023-02-23T02:22:40.783Z,406.00
2023-02-23T02:23:40.847Z,407.00
2023-02-23T02:24:40.784Z,406.00
2023-02-23T02:25:40.881Z,406.00
2023-02-23T02:26:40.696Z,410.00
2023-02-23T02:27:40.865Z,408.00
2023-02-23T02:28:40.676Z,410.00
2023-02-23T02:29:40.746Z,410.00
2023-02-23T02:30:40.680Z,412.00
2023-02-23T02:31:40.885Z,410.00
2023-02-23T02:32:40.616Z,412.00
2023-02-23T02:33:40.766Z,412.00
2023-02-23T02:34:40.596Z,398.00
2023-02-23T02:35:42.751Z,410.00
2023-02-23T02:36:40.573Z,405.00
2023-02-23T02:37:40.585Z,408.00
2023-02-23T02:38:40.551Z,408.00
2023-02-23T02:39:45.894Z,404.00
2023-02-23T02:40:40.542Z,406.00
2023-02-23T02:41:41.590Z,407.00
2023-02-23T02:42:40.485Z,409.00
2023-02-23T02:43:40.601Z,407.00
2023-02-23T02:44:40.495Z,412.00
2023-02-23T02:45:41.608Z,410.00
2023-02-23T02:46:40.448Z,410.00
2023-02-23T02:47:40.466Z,413.00
2023-02-23T02:48:40.410Z,411.00
2023-02-23T02:49:40.501Z,411.00
2023-02-23T02:50:40.377Z,409.00
2023-02-23T02:51:41.444Z,411.00
2023-02-23T02:52:40.346Z,411.00
2023-02-23T02:53:40.469Z,412.00
2023-02-23T02:54:40.330Z,407.00
2023-02-23T02:55:40.508Z,412.00
2023-02-23T02:56:40.519Z,409.00
2023-02-23T02:57:44.590Z,407.00
2023-02-23T02:58:40.279Z,408.00
2023-02-23T02:59:40.390Z,419.00
2023-02-23T03:00:40.247Z,410.00
2023-02-23T03:01:40.389Z,410.00
2023-02-23T03:02:40.280Z,407.00
2023-02-23T03:03:43.570Z,410.00
2023-02-23T03:04:40.188Z,413.00
2023-02-23T03:05:40.287Z,412.00
2023-02-23T03:06:40.169Z,411.00
2023-02-23T03:07:41.248Z,414.00
2023-02-23T03:08:40.144Z,414.00
2023-02-23T03:09:41.231Z,413.00
2023-02-23T03:10:40.127Z,410.00
2023-02-23T03:11:40.289Z,405.00
2023-02-23T03:12:40.089Z,408.00
2023-02-23T03:13:40.230Z,411.00
2023-02-23T03:14:40.078Z,409.00
2023-02-23T03:15:40.117Z,408.00
2023-02-23T03:16:40.044Z,410.00
2023-02-23T03:17:40.119Z,410.00
2023-02-23T03:18:40.021Z,412.00
2023-02-23T03:19:40.148Z,411.00
2023-02-23T03:20:39.981Z,410.00
2023-02-23T03:21:40.119Z,411.00
2023-02-23T03:22:39.974Z,409.00
2023-02-23T03:23:40.111Z,408.00
2023-02-23T03:24:39.928Z,407.00
2023-02-23T03:25:42.130Z,408.00
2023-02-23T03:26:39.898Z,409.00
2023-02-23T03:27:40.035Z,409.00
2023-02-23T03:28:39.884Z,407.00
2023-02-23T03:29:40.032Z,407.00
2023-02-23T03:30:39.858Z,408.00
2023-02-23T03:31:40.164Z,407.00
2023-02-23T03:32:39.893Z,405.00
2023-02-23T03:33:39.937Z,404.00
2023-02-23T03:34:39.809Z,404.00
2023-02-23T03:35:39.946Z,400.00
2023-02-23T03:36:39.778Z,399.00
2023-02-23T03:37:39.861Z,400.00
2023-02-23T03:38:39.747Z,401.00
2023-02-23T03:39:39.947Z,402.00
2023-02-23T03:40:39.719Z,400.00
2023-02-23T03:41:39.835Z,401.00
2023-02-23T03:42:39.697Z,401.00
2023-02-23T03:43:41.858Z,402.00
2023-02-23T03:44:39.673Z,402.00
2023-02-23T03:45:39.845Z,402.00
2023-02-23T03:46:39.638Z,402.00
2023-02-23T03:47:39.791Z,403.00
2023-02-23T03:48:39.613Z,404.00
2023-02-23T03:49:39.774Z,402.00
2023-02-23T03:50:39.587Z,404.00
2023-02-23T03:51:39.666Z,405.00
2023-02-23T03:52:39.559Z,402.00
2023-02-23T03:54:00.625Z,401.00
2023-02-23T03:54:39.528Z,404.00
2023-02-23T03:56:02.656Z,403.00
2023-02-23T03:56:39.507Z,404.00
2023-02-23T03:57:39.647Z,405.00
2023-02-23T03:58:39.487Z,403.00
2023-02-23T03:59:39.642Z,404.00
2023-02-23T04:00:39.462Z,405.00
2023-02-23T04:01:39.515Z,404.00
2023-02-23T04:02:39.419Z,405.00
2023-02-23T04:03:39.606Z,404.00
2023-02-23T04:04:39.422Z,406.00
2023-02-23T04:05:39.543Z,407.00
2023-02-23T04:06:39.364Z,406.00
2023-02-23T04:07:39.510Z,405.00
2023-02-23T04:08:39.341Z,406.00
2023-02-23T04:09:39.568Z,415.00
2023-02-23T04:10:39.324Z,410.00
2023-02-23T04:11:41.440Z,411.00
2023-02-23T04:12:39.284Z,410.00
2023-02-23T04:13:40.367Z,411.00
2023-02-23T04:14:39.278Z,410.00
2023-02-23T04:15:39.366Z,412.00
2023-02-23T04:16:39.282Z,410.00
2023-02-23T04:17:39.368Z,408.00
2023-02-23T04:18:39.216Z,409.00
2023-02-23T04:19:39.282Z,406.00
2023-02-23T04:20:39.206Z,408.00
2023-02-23T04:21:39.277Z,405.00
2023-02-23T04:22:39.154Z,403.00
2023-02-23T04:23:39.261Z,404.00
2023-02-23T04:24:39.125Z,400.00
2023-02-23T04:25:40.218Z,405.00
2023-02-23T04:26:39.091Z,403.00
2023-02-23T04:27:39.281Z,405.00
2023-02-23T04:28:39.072Z,405.00
2023-02-23T04:29:40.194Z,405.00
2023-02-23T04:30:39.084Z,406.00
2023-02-23T04:31:39.158Z,405.00
2023-02-23T04:32:39.102Z,405.00
2023-02-23T04:33:39.182Z,403.00
2023-02-23T04:34:39.018Z,398.00
2023-02-23T04:35:39.197Z,400.00
2023-02-23T04:36:38.964Z,401.00
2023-02-23T04:37:39.114Z,402.00
2023-02-23T04:38:38.944Z,403.00
2023-02-23T04:39:38.994Z,406.00
2023-02-23T04:40:38.925Z,407.00
2023-02-23T04:41:38.977Z,409.00
2023-02-23T04:42:38.897Z,408.00
2023-02-23T04:43:38.954Z,410.00
2023-02-23T04:44:38.863Z,406.00
2023-02-23T04:45:39.052Z,409.00
2023-02-23T04:46:38.843Z,409.00
2023-02-23T04:47:38.885Z,408.00
2023-02-23T04:48:38.820Z,409.00
2023-02-23T04:49:40.915Z,408.00
2023-02-23T04:50:38.808Z,408.00
2023-02-23T04:51:38.904Z,406.00
2023-02-23T04:52:38.763Z,406.00
2023-02-23T04:53:38.894Z,408.00
2023-02-23T04:54:38.732Z,409.00
2023-02-23T04:55:39.855Z,410.00
2023-02-23T04:56:38.696Z,408.00
2023-02-23T04:57:38.830Z,407.00
2023-02-23T04:58:38.674Z,407.00
2023-02-23T04:59:38.802Z,408.00
2023-02-23T05:00:38.656Z,409.00
2023-02-23T05:01:38.788Z,408.00
2023-02-23T05:02:38.623Z,409.00
2023-02-23T05:03:38.834Z,410.00
2023-02-23T05:04:38.628Z,408.00
2023-02-23T05:05:39.630Z,413.00
2023-02-23T05:06:38.574Z,408.00
2023-02-23T05:07:38.643Z,411.00
2023-02-23T05:08:38.545Z,407.00
2023-02-23T05:09:39.352Z,411.00
2023-02-23T05:10:40.230Z,413.00
2023-02-23T05:11:39.659Z,412.00
2023-02-23T05:12:38.485Z,412.00
2023-02-23T05:13:38.659Z,412.00
2023-02-23T05:14:38.465Z,412.00
2023-02-23T05:15:38.749Z,416.00
2023-02-23T05:16:38.443Z,411.00
2023-02-23T05:17:38.515Z,408.00
2023-02-23T05:18:38.416Z,407.00
2023-02-23T05:19:38.556Z,407.00
2023-02-23T05:20:38.385Z,411.00
2023-02-23T05:21:38.556Z,410.00
2023-02-23T05:22:38.367Z,412.00
2023-02-23T05:23:38.529Z,408.00
2023-02-23T05:24:38.332Z,407.00
2023-02-23T05:25:38.461Z,407.00
2023-02-23T05:26:38.304Z,409.00
2023-02-23T05:27:38.407Z,410.00
2023-02-23T05:28:38.283Z,411.00
2023-02-23T05:29:38.424Z,409.00
2023-02-23T05:30:38.314Z,409.00
2023-02-23T05:31:38.521Z,411.00
2023-02-23T05:32:38.222Z,409.00
2023-02-23T05:33:38.374Z,408.00
2023-02-23T05:34:38.200Z,408.00
2023-02-23T05:35:38.222Z,408.00
2023-02-23T05:36:38.173Z,409.00
2023-02-23T05:37:38.270Z,408.00
2023-02-23T05:38:38.143Z,410.00
2023-02-23T05:39:38.250Z,409.00
2023-02-23T05:40:38.110Z,409.00
2023-02-23T05:41:39.262Z,408.00
2023-02-23T05:42:38.089Z,406.00
2023-02-23T05:43:59.253Z,407.00
2023-02-23T05:44:38.058Z,408.00
2023-02-23T05:45:40.168Z,407.00
2023-02-23T05:46:38.102Z,412.00
2023-02-23T05:47:38.169Z,407.00
2023-02-23T05:48:38.034Z,410.00
2023-02-23T05:49:38.181Z,409.00
2023-02-23T05:50:37.968Z,407.00
2023-02-23T05:51:38.159Z,408.00
2023-02-23T05:52:37.978Z,407.00
2023-02-23T05:53:38.168Z,408.00
2023-02-23T05:54:37.922Z,407.00
2023-02-23T05:55:37.980Z,405.00
2023-02-23T05:56:37.907Z,402.00
2023-02-23T05:57:38.000Z,405.00
2023-02-23T05:58:37.879Z,409.00
2023-02-23T05:59:38.063Z,411.00
2023-02-23T06:00:37.850Z,408.00
2023-02-23T06:01:37.888Z,414.00
2023-02-23T06:02:37.893Z,417.00
2023-02-23T06:03:38.061Z,411.00
2023-02-23T06:04:37.809Z,411.00
2023-02-23T06:05:37.863Z,408.00
2023-02-23T06:06:37.778Z,400.00
2023-02-23T06:07:37.897Z,404.00
2023-02-23T06:08:37.739Z,400.00
2023-02-23T06:09:37.885Z,399.00
2023-02-23T06:10:37.726Z,399.00
2023-02-23T06:11:37.870Z,402.00
2023-02-23T06:12:37.700Z,401.00
2023-02-23T06:13:37.822Z,400.00
2023-02-23T06:14:37.668Z,402.00
2023-02-23T06:15:37.826Z,402.00
2023-02-23T06:16:37.789Z,400.00
2023-02-23T06:17:37.781Z,401.00
2023-02-23T06:18:37.623Z,400.00
2023-02-23T06:19:37.730Z,403.00
2023-02-23T06:20:40.171Z,404.00
2023-02-23T06:21:39.640Z,406.00
2023-02-23T06:22:37.549Z,405.00
2023-02-23T06:23:37.678Z,407.00
2023-02-23T06:24:37.540Z,417.00
2023-02-23T06:25:37.611Z,412.00
2023-02-23T06:26:37.505Z,408.00
2023-02-23T06:27:38.628Z,406.00
2023-02-23T06:28:37.488Z,404.00
2023-02-23T06:29:38.508Z,400.00
2023-02-23T06:30:37.457Z,405.00
2023-02-23T06:31:37.614Z,405.00
2023-02-23T06:32:37.516Z,403.00
2023-02-23T06:33:37.512Z,403.00
2023-02-23T06:34:37.389Z,406.00
2023-02-23T06:35:37.489Z,407.00
2023-02-23T06:36:37.388Z,405.00
2023-02-23T06:37:37.532Z,405.00
2023-02-23T06:38:37.347Z,405.00
2023-02-23T06:39:37.418Z,405.00
2023-02-23T06:40:37.322Z,401.00
2023-02-23T06:41:37.398Z,401.00
2023-02-23T06:42:37.297Z,401.00
2023-02-23T06:43:38.457Z,402.00
2023-02-23T06:44:37.267Z,401.00
2023-02-23T06:45:37.421Z,403.00
2023-02-23T06:46:37.261Z,404.00
2023-02-23T06:47:37.297Z,405.00
2023-02-23T06:48:37.212Z,407.00
2023-02-23T06:49:37.339Z,407.00
2023-02-23T06:50:37.188Z,411.00
2023-02-23T06:51:39.278Z,409.00
2023-02-23T06:52:37.158Z,409.00
2023-02-23T06:53:37.338Z,408.00
2023-02-23T06:54:37.127Z,408.00
2023-02-23T06:55:37.247Z,406.00
2023-02-23T06:56:37.126Z,406.00
2023-02-23T06:57:37.228Z,407.00
2023-02-23T06:58:37.077Z,406.00
2023-02-23T06:59:37.208Z,409.00
2023-02-23T07:00:37.057Z,410.00
2023-02-23T07:01:37.172Z,410.00
2023-02-23T07:02:37.019Z,408.00
2023-02-23T07:03:37.182Z,406.00
2023-02-23T07:04:36.995Z,406.00
2023-02-23T07:05:37.015Z,406.00
2023-02-23T07:06:36.965Z,409.00
2023-02-23T07:07:37.047Z,406.00
2023-02-23T07:08:36.943Z,405.00
2023-02-23T07:09:37.040Z,403.00
2023-02-23T07:10:36.913Z,403.00
2023-02-23T07:11:37.036Z,404.00
2023-02-23T07:12:36.881Z,405.00
2023-02-23T07:13:37.054Z,405.00
2023-02-23T07:14:36.866Z,410.00
2023-02-23T07:15:36.950Z,405.00
2023-02-23T07:16:36.875Z,408.00
2023-02-23T07:17:38.011Z,408.00
2023-02-23T07:18:36.804Z,408.00
2023-02-23T07:19:36.976Z,408.00
2023-02-23T07:20:36.780Z,411.00
2023-02-23T07:21:36.950Z,411.00
2023-02-23T07:22:38.134Z,411.00
2023-02-23T07:23:36.964Z,411.00
2023-02-23T07:24:36.719Z,408.00
2023-02-23T07:25:37.799Z,407.00
2023-02-23T07:26:36.739Z,409.00
2023-02-23T07:27:36.850Z,408.00
2023-02-23T07:28:36.693Z,407.00
2023-02-23T07:29:36.769Z,405.00
2023-02-23T07:30:36.647Z,406.00
2023-02-23T07:31:36.910Z,405.00
2023-02-23T07:32:36.723Z,404.00
2023-02-23T07:33:36.661Z,406.00
2023-02-23T07:34:36.589Z,410.00
2023-02-23T07:35:36.631Z,412.00
2023-02-23T07:36:36.572Z,411.00
2023-02-23T07:37:59.766Z,409.00
2023-02-23T07:38:36.541Z,406.00
2023-02-23T07:39:36.550Z,402.00
2023-02-23T07:40:36.590Z,404.00
2023-02-23T07:41:36.568Z,408.00
2023-02-23T07:42:36.623Z,411.00
2023-02-23T07:43:36.474Z,411.00
2023-02-23T07:44:36.794Z,410.00
2023-02-23T07:45:36.499Z,412.00
2023-02-23T07:46:36.594Z,410.00
2023-02-23T07:47:36.415Z,411.00
2023-02-23T07:48:36.526Z,412.00
2023-02-23T07:49:36.394Z,408.00
2023-02-23T07:50:36.455Z,412.00
2023-02-23T07:51:36.396Z,413.00
2023-02-23T07:52:36.507Z,406.00
2023-02-23T07:53:36.342Z,410.00
2023-02-23T07:54:36.539Z,408.00
2023-02-23T07:55:36.318Z,410.00
2023-02-23T07:56:36.365Z,414.00
2023-02-23T07:57:36.309Z,414.00
2023-02-23T07:58:36.419Z,411.00
2023-02-23T07:59:36.264Z,404.00
2023-02-23T08:00:36.337Z,406.00
2023-02-23T08:01:36.243Z,404.00
2023-02-23T08:02:36.386Z,400.00
2023-02-23T08:03:36.219Z,403.00
2023-02-23T08:04:36.360Z,404.00
2023-02-23T08:05:36.177Z,406.00
2023-02-23T08:06:36.246Z,406.00
2023-02-23T08:07:36.155Z,403.00
2023-02-23T08:08:36.283Z,406.00
2023-02-23T08:09:36.176Z,403.00
2023-02-23T08:10:36.215Z,400.00
2023-02-23T08:11:36.095Z,400.00
2023-02-23T08:12:38.256Z,407.00
2023-02-23T08:13:36.066Z,405.00
2023-02-23T08:14:36.297Z,403.00
2023-02-23T08:15:36.057Z,402.00
2023-02-23T08:16:38.232Z,405.00
2023-02-23T08:17:36.044Z,402.00
2023-02-23T08:18:36.237Z,401.00
2023-02-23T08:19:35.994Z,401.00
2023-02-23T08:20:36.098Z,402.00
2023-02-23T08:21:35.988Z,400.00
2023-02-23T08:22:48.862Z,398.00
2023-02-23T08:23:36.938Z,400.00
2023-02-23T08:24:36.006Z,401.00
2023-02-23T08:25:35.894Z,397.00
2023-02-23T08:26:36.018Z,398.00
2023-02-23T08:27:35.904Z,402.00
2023-02-23T08:28:35.982Z,403.00
2023-02-23T08:29:35.851Z,402.00
2023-02-23T08:30:36.050Z,399.00
2023-02-23T08:31:36.063Z,396.00
2023-02-23T08:32:36.046Z,397.00
2023-02-23T08:33:35.813Z,398.00
2023-02-23T08:34:35.845Z,397.00
2023-02-23T08:35:35.774Z,397.00
2023-02-23T08:36:35.847Z,399.00
2023-02-23T08:37:35.754Z,399.00
2023-02-23T08:38:35.916Z,400.00
2023-02-23T08:39:35.748Z,398.00
2023-02-23T08:40:35.844Z,396.00
2023-02-23T08:41:35.706Z,396.00
2023-02-23T08:42:35.775Z,394.00
2023-02-23T08:43:35.689Z,393.00
2023-02-23T08:44:35.713Z,388.00
2023-02-23T08:45:35.902Z,388.00
2023-02-23T08:46:35.751Z,392.00
2023-02-23T08:47:35.621Z,391.00
2023-02-23T08:48:35.789Z,393.00
2023-02-23T08:49:35.586Z,392.00
2023-02-23T08:50:35.729Z,392.00
2023-02-23T08:51:35.641Z,393.00
2023-02-23T08:52:56.772Z,393.00
2023-02-23T08:53:35.548Z,391.00
2023-02-23T08:54:35.599Z,394.00
2023-02-23T08:55:35.521Z,390.00
2023-02-23T08:56:35.850Z,388.00
2023-02-23T08:57:35.506Z,393.00
2023-02-23T08:58:35.577Z,394.00
2023-02-23T08:59:35.458Z,391.00
2023-02-23T09:00:35.599Z,389.00
2023-02-23T09:01:35.493Z,391.00
2023-02-23T09:02:35.529Z,393.00
2023-02-23T09:03:37.679Z,389.00
2023-02-23T09:04:35.457Z,384.00
2023-02-23T09:05:35.421Z,390.00
2023-02-23T09:06:35.502Z,387.00
2023-02-23T09:07:35.339Z,391.00
2023-02-23T09:08:35.669Z,388.00
2023-02-23T09:09:35.341Z,386.00
2023-02-23T09:10:36.499Z,390.00
2023-02-23T09:11:35.288Z,388.00
2023-02-23T09:12:35.389Z,388.00
2023-02-23T09:13:35.276Z,389.00
2023-02-23T09:14:37.444Z,388.00
2023-02-23T09:15:35.305Z,387.00
2023-02-23T09:16:35.378Z,387.00
2023-02-23T09:17:35.225Z,386.00
2023-02-23T09:18:35.417Z,388.00
2023-02-23T09:19:35.188Z,387.00
2023-02-23T09:20:35.247Z,386.00
2023-02-23T09:21:35.183Z,389.00
2023-02-23T09:22:36.858Z,390.00
2023-02-23T09:23:35.138Z,389.00
2023-02-23T09:24:35.222Z,389.00
2023-02-23T09:25:35.125Z,391.00
2023-02-23T09:26:35.257Z,388.00
2023-02-23T09:27:35.098Z,386.00
2023-02-23T09:28:36.222Z,386.00
2023-02-23T09:29:35.059Z,386.00
2023-02-23T09:30:35.149Z,387.00
2023-02-23T09:31:35.151Z,396.00
2023-02-23T09:32:35.238Z,393.00
2023-02-23T09:33:35.029Z,390.00
2023-02-23T09:34:37.345Z,389.00
2023-02-23T09:35:35.139Z,388.00
2023-02-23T09:36:35.137Z,388.00
2023-02-23T09:37:34.947Z,387.00
2023-02-23T09:38:35.976Z,386.00
2023-02-23T09:39:38.654Z,390.00
2023-02-23T09:40:34.919Z,390.00
2023-02-23T09:41:37.088Z,389.00
2023-02-23T09:42:34.868Z,388.00
2023-02-23T09:43:35.018Z,386.00
2023-02-23T09:44:34.859Z,383.00
2023-02-23T09:45:35.055Z,384.00
2023-02-23T09:46:34.834Z,387.00
2023-02-23T09:47:34.969Z,384.00
2023-02-23T09:48:34.801Z,387.00
2023-02-23T09:49:35.938Z,386.00
2023-02-23T09:50:34.772Z,391.00
2023-02-23T09:51:35.009Z,390.00
2023-02-23T09:52:34.923Z,389.00
2023-02-23T09:53:34.785Z,395.00
2023-02-23T09:54:34.744Z,390.00
2023-02-23T09:55:34.829Z,389.00
2023-02-23T09:56:34.695Z,391.00
2023-02-23T09:57:34.811Z,392.00
2023-02-23T09:58:34.684Z,390.00
2023-02-23T09:59:34.796Z,390.00
2023-02-23T10:00:34.642Z,391.00
2023-02-23T10:01:34.746Z,390.00
2023-02-23T10:02:34.627Z,387.00
2023-02-23T10:03:34.726Z,390.00
2023-02-23T10:04:34.627Z,392.00
2023-02-23T10:05:34.696Z,388.00
2023-02-23T10:06:34.564Z,388.00
2023-02-23T10:07:34.736Z,383.00
2023-02-23T10:08:34.542Z,384.00
2023-02-23T10:09:34.713Z,389.00
2023-02-23T10:10:34.578Z,387.00
2023-02-23T10:11:36.908Z,395.00
2023-02-23T10:12:34.501Z,390.00
2023-02-23T10:13:34.541Z,392.00
2023-02-23T10:14:34.453Z,389.00
2023-02-23T10:15:34.652Z,391.00
2023-02-23T10:16:34.440Z,388.00
2023-02-23T10:17:34.612Z,385.00
2023-02-23T10:18:46.124Z,386.00
2023-02-23T10:19:35.385Z,382.00
2023-02-23T10:20:34.440Z,388.00
2023-02-23T10:21:34.374Z,388.00
2023-02-23T10:22:34.444Z,390.00
2023-02-23T10:23:34.350Z,384.00
2023-02-23T10:24:35.410Z,393.00
2023-02-23T10:25:34.302Z,392.00
2023-02-23T10:26:34.413Z,392.00
2023-02-23T10:27:34.307Z,389.00
2023-02-23T10:28:34.374Z,385.00
2023-02-23T10:29:34.272Z,383.00
2023-02-23T10:30:34.428Z,385.00
2023-02-23T10:31:34.525Z,386.00
2023-02-23T10:32:34.449Z,388.00
2023-02-23T10:33:34.227Z,388.00
2023-02-23T10:34:34.267Z,387.00
2023-02-23T10:35:34.183Z,389.00
2023-02-23T10:36:34.297Z,390.00
2023-02-23T10:37:34.148Z,391.00
2023-02-23T10:38:34.233Z,389.00
2023-02-23T10:39:34.143Z,388.00
2023-02-23T10:40:34.306Z,387.00
2023-02-23T10:41:34.094Z,388.00
2023-02-23T10:42:34.201Z,386.00
2023-02-23T10:43:34.081Z,398.00
2023-02-23T10:44:34.139Z,398.00
2023-02-23T10:45:34.055Z,393.00
2023-02-23T10:46:34.264Z,393.00
2023-02-23T10:47:34.044Z,392.00
2023-02-23T10:48:34.122Z,391.00
2023-02-23T10:49:34.036Z,390.00
2023-02-23T10:50:34.153Z,390.00
2023-02-23T10:51:33.992Z,387.00
2023-02-23T10:52:34.133Z,390.00
2023-02-23T10:53:33.947Z,390.00
2023-02-23T10:54:34.019Z,391.00
2023-02-23T10:55:33.908Z,390.00
2023-02-23T10:56:34.045Z,390.00
2023-02-23T10:57:33.904Z,390.00
2023-02-23T10:58:34.026Z,392.00
2023-02-23T10:59:33.882Z,391.00
2023-02-23T11:00:54.950Z,389.00
2023-02-23T11:01:33.885Z,394.00
2023-02-23T11:02:34.107Z,393.00
2023-02-23T11:03:33.809Z,394.00
2023-02-23T11:04:33.983Z,395.00
2023-02-23T11:05:33.835Z,399.00
2023-02-23T11:06:34.013Z,390.00
2023-02-23T11:07:33.767Z,396.00
2023-02-23T11:08:33.764Z,398.00
2023-02-23T11:09:45.834Z,397.00
2023-02-23T11:10:34.702Z,398.00
2023-02-23T11:11:33.852Z,396.00
2023-02-23T11:12:33.672Z,396.00
2023-02-23T11:13:34.874Z,400.00
2023-02-23T11:14:33.679Z,395.00
2023-02-23T11:15:54.457Z,390.00
2023-02-23T11:16:34.701Z,393.00
2023-02-23T11:17:33.663Z,389.00
2023-02-23T11:18:33.590Z,388.00
2023-02-23T11:19:33.695Z,387.00
2023-02-23T11:20:33.553Z,389.00
2023-02-23T11:21:33.797Z,391.00
2023-02-23T11:22:33.585Z,391.00
2023-02-23T11:23:33.747Z,386.00
2023-02-23T11:24:33.516Z,383.00
2023-02-23T11:25:33.602Z,381.00
2023-02-23T11:26:33.525Z,388.00
2023-02-23T11:27:33.675Z,388.00
2023-02-23T11:28:33.546Z,389.00
2023-02-23T11:29:33.586Z,389.00
2023-02-23T11:30:33.447Z,390.00
2023-02-23T11:31:33.657Z,381.00
2023-02-23T11:32:33.514Z,385.00
2023-02-23T11:33:33.521Z,387.00
2023-02-23T11:34:33.368Z,388.00
2023-02-23T11:35:35.488Z,394.00
2023-02-23T11:36:33.351Z,391.00
2023-02-23T11:37:33.410Z,393.00
2023-02-23T11:38:33.326Z,393.00
2023-02-23T11:39:33.500Z,392.00
2023-02-23T11:40:33.328Z,389.00
2023-02-23T11:41:35.528Z,394.00
2023-02-23T11:42:33.342Z,395.00
2023-02-23T11:43:33.322Z,390.00
2023-02-23T11:44:33.779Z,390.00
2023-02-23T11:45:34.353Z,388.00
2023-02-23T11:46:33.290Z,394.00
2023-02-23T11:47:33.290Z,392.00
2023-02-23T11:48:33.179Z,385.00
2023-02-23T11:49:33.330Z,386.00
2023-02-23T11:50:33.182Z,385.00
2023-02-23T11:51:34.348Z,390.00
2023-02-23T11:52:33.128Z,390.00
2023-02-23T11:53:33.199Z,392.00
2023-02-23T11:54:33.946Z,392.00
2023-02-23T11:55:34.367Z,391.00
2023-02-23T11:56:34.110Z,391.00
2023-02-23T11:57:43.810Z,387.00
2023-02-23T11:58:36.230Z,390.00
2023-02-23T11:59:34.624Z,389.00
2023-02-23T12:00:33.098Z,392.00
2023-02-23T12:01:33.461Z,403.00
2023-02-23T12:02:33.005Z,398.00
2023-02-23T12:03:39.972Z,389.00
2023-02-23T12:04:35.233Z,389.00
2023-02-23T12:05:35.879Z,390.00
2023-02-23T12:06:37.880Z,390.00
2023-02-23T12:07:39.003Z,389.00
2023-02-23T12:08:37.556Z,384.00
2023-02-23T12:09:38.853Z,390.00
2023-02-23T12:10:36.277Z,392.00
2023-02-23T12:11:34.971Z,388.00
2023-02-23T12:12:33.791Z,388.00
2023-02-23T12:13:33.882Z,386.00
2023-02-23T12:14:35.395Z,383.00
2023-02-23T12:15:35.469Z,390.00
2023-02-23T12:16:42.052Z,390.00
2023-02-23T12:17:37.071Z,387.00
2023-02-23T12:18:32.910Z,388.00
2023-02-23T12:19:37.146Z,386.00
2023-02-23T12:20:37.891Z,384.00
2023-02-23T12:21:33.570Z,383.00
2023-02-23T12:22:40.222Z,384.00
2023-02-23T12:23:32.702Z,385.00
2023-02-23T12:24:32.837Z,387.00
2023-02-23T12:25:32.689Z,387.00
2023-02-23T12:26:32.824Z,386.00
2023-02-23T12:27:32.660Z,395.00
2023-02-23T12:28:33.908Z,389.00
2023-02-23T12:29:32.627Z,382.00